Baker City, OR

5:43 AM PST on February 06, 2016 (GMT -0800)
Baker City Municipal | | Change Station
CLOSE
Current Station
Airport
Location: Baker,
Elevation: 3373 ft
Nearby Weather Stations

Elev 3373 ft 44.84 °N, 117.81 °W | Updated 50 minutes ago

Clear
Clear
32 °F
Feels Like 29 °F
N
4
Wind Variable Wind from Variable

Today
High -- | Low -- °F
--% Chance of Precip.
Yesterday
High -- | Low -- °F
Precip. -- in
Pressure 30.41 in
Visibility 10.0 miles
Clouds Clear
Windchill 29 °F
Dew Point 27 °F
Humidity 82%
Rainfall 0.00 in
Snow Depth Not available.
7:04 AM 5:06 PM
Waning Crescent, 5% visible
METAR KBKE 061253Z AUTO VRB03KT 10SM CLR 00/M03 A3034 RMK AO2 SLP296 T00001028 TSNO
Pressure 30.41 in
Visibility 10.0 miles
Clouds Clear
Windchill 29 °F
Dew Point 27 °F
Humidity 82%
Rainfall 0.00 in
Snow Depth Not available.
7:04 AM 5:06 PM
Waning Crescent, 5% visible
METAR KBKE 061253Z AUTO VRB03KT 10SM CLR 00/M03 A3034 RMK AO2 SLP296 T00001028 TSNO

10-Day Weather Forecast

Almanac

Astronomy

Feb. 06, 2016 Rise Set
Actual Time
Civil Twilight
Nautical Twilight
Astronomical Twilight
Moon
Length of Visible Light
Length of Day
Tomorrow will be .
, % of the Moon is Illuminated

Today's Extremes

State Highs State Lows

Community

WunderPhotos

Upload Photos

1,890,971 photos uploaded!

WunderBlog® & News

Nearby

Air Quality

  Air Quality AQ Index Pollutant
Not available.

Snow Depth

Station Depth Elevation

Earthquake Activity

City Distance Mag. Time & Date
Minimum magnitude displayed is 2.5.

Coastal Water Temperatures

Place Temperature

Stations

Nearby Weather Stations

Station Location Temp. Windchill Dew Point Humidity Wind Precip. Elev Updated Type
                   

Watches & Warnings

There are currently no watches in effect.